sensor_id;sensor_type;location;lat;lon;timestamp;P1;durP1;ratioP1;P2;durP2;ratioP2
69951;SDS011;60406;48.408;13.392;2022-07-10T00:03:26;12.65;;;7.32;;
69951;SDS011;60406;48.408;13.392;2022-07-10T00:08:27;7.07;;;6.57;;
69951;SDS011;60406;48.408;13.392;2022-07-10T00:13:27;9.38;;;7.47;;
69951;SDS011;60406;48.408;13.392;2022-07-10T00:18:29;11.73;;;7.28;;
69951;SDS011;60406;48.408;13.392;2022-07-10T00:23:30;11.05;;;7.38;;
69951;SDS011;60406;48.408;13.392;2022-07-10T00:28:31;9.18;;;8.30;;
69951;SDS011;60406;48.408;13.392;2022-07-10T00:33:31;10.43;;;9.27;;
69951;SDS011;60406;48.408;13.392;2022-07-10T00:38:32;9.70;;;8.73;;
69951;SDS011;60406;48.408;13.392;2022-07-10T00:48:57;11.00;;;9.70;;
69951;SDS011;60406;48.408;13.392;2022-07-10T00:53:58;12.30;;;9.15;;
69951;SDS011;60406;48.408;13.392;2022-07-10T00:58:59;10.40;;;9.40;;
69951;SDS011;60406;48.408;13.392;2022-07-10T01:04:00;12.35;;;11.25;;
69951;SDS011;60406;48.408;13.392;2022-07-10T01:09:01;12.43;;;11.05;;
69951;SDS011;60406;48.408;13.392;2022-07-10T01:14:02;11.43;;;10.38;;
69951;SDS011;60406;48.408;13.392;2022-07-10T01:19:03;10.48;;;9.57;;
69951;SDS011;60406;48.408;13.392;2022-07-10T01:24:04;12.02;;;10.85;;
69951;SDS011;60406;48.408;13.392;2022-07-10T01:29:10;13.45;;;10.15;;
69951;SDS011;60406;48.408;13.392;2022-07-10T01:34:11;13.90;;;10.52;;
69951;SDS011;60406;48.408;13.392;2022-07-10T01:39:12;13.32;;;12.20;;
69951;SDS011;60406;48.408;13.392;2022-07-10T01:44:12;19.25;;;11.07;;
69951;SDS011;60406;48.408;13.392;2022-07-10T01:49:13;12.38;;;10.55;;
69951;SDS011;60406;48.408;13.392;2022-07-10T01:54:14;13.70;;;11.07;;
69951;SDS011;60406;48.408;13.392;2022-07-10T01:59:15;12.80;;;11.60;;
69951;SDS011;60406;48.408;13.392;2022-07-10T02:04:16;12.07;;;10.98;;
69951;SDS011;60406;48.408;13.392;2022-07-10T02:09:17;12.43;;;11.20;;
69951;SDS011;60406;48.408;13.392;2022-07-10T02:14:18;12.55;;;11.27;;
69951;SDS011;60406;48.408;13.392;2022-07-10T02:19:19;13.52;;;10.48;;
69951;SDS011;60406;48.408;13.392;2022-07-10T02:24:20;14.32;;;11.15;;
69951;SDS011;60406;48.408;13.392;2022-07-10T02:29:21;12.32;;;10.98;;
69951;SDS011;60406;48.408;13.392;2022-07-10T02:34:21;12.73;;;11.57;;
69951;SDS011;60406;48.408;13.392;2022-07-10T02:39:22;14.73;;;11.75;;
69951;SDS011;60406;48.408;13.392;2022-07-10T02:44:23;13.30;;;12.00;;
69951;SDS011;60406;48.408;13.392;2022-07-10T02:49:24;14.23;;;12.20;;
69951;SDS011;60406;48.408;13.392;2022-07-10T02:54:25;15.40;;;12.85;;
69951;SDS011;60406;48.408;13.392;2022-07-10T02:59:26;14.20;;;12.80;;
69951;SDS011;60406;48.408;13.392;2022-07-10T03:04:27;19.27;;;13.55;;
69951;SDS011;60406;48.408;13.392;2022-07-10T03:09:28;14.77;;;13.48;;
69951;SDS011;60406;48.408;13.392;2022-07-10T03:14:28;15.02;;;13.52;;
69951;SDS011;60406;48.408;13.392;2022-07-10T03:19:29;16.23;;;14.73;;
69951;SDS011;60406;48.408;13.392;2022-07-10T03:24:30;17.20;;;15.40;;
69951;SDS011;60406;48.408;13.392;2022-07-10T03:29:31;18.38;;;16.40;;
69951;SDS011;60406;48.408;13.392;2022-07-10T03:34:32;18.27;;;16.67;;
69951;SDS011;60406;48.408;13.392;2022-07-10T03:39:33;20.10;;;18.10;;
69951;SDS011;60406;48.408;13.392;2022-07-10T03:44:34;18.45;;;16.70;;
69951;SDS011;60406;48.408;13.392;2022-07-10T03:49:34;22.52;;;17.88;;
69951;SDS011;60406;48.408;13.392;2022-07-10T03:54:36;19.35;;;17.35;;
69951;SDS011;60406;48.408;13.392;2022-07-10T03:59:37;17.08;;;15.27;;
69951;SDS011;60406;48.408;13.392;2022-07-10T04:04:38;17.83;;;15.93;;
69951;SDS011;60406;48.408;13.392;2022-07-10T04:09:39;17.40;;;14.93;;
69951;SDS011;60406;48.408;13.392;2022-07-10T04:14:40;15.27;;;13.82;;
69951;SDS011;60406;48.408;13.392;2022-07-10T04:19:40;18.02;;;16.02;;
69951;SDS011;60406;48.408;13.392;2022-07-10T04:24:41;17.55;;;16.02;;
69951;SDS011;60406;48.408;13.392;2022-07-10T04:29:43;15.60;;;13.75;;
69951;SDS011;60406;48.408;13.392;2022-07-10T04:34:43;14.10;;;12.68;;
69951;SDS011;60406;48.408;13.392;2022-07-10T04:39:44;14.45;;;13.15;;
69951;SDS011;60406;48.408;13.392;2022-07-10T04:44:45;14.30;;;13.07;;
69951;SDS011;60406;48.408;13.392;2022-07-10T04:49:46;14.00;;;12.65;;
69951;SDS011;60406;48.408;13.392;2022-07-10T04:54:47;14.23;;;12.85;;
69951;SDS011;60406;48.408;13.392;2022-07-10T04:59:48;14.48;;;11.18;;
69951;SDS011;60406;48.408;13.392;2022-07-10T05:04:49;11.77;;;10.77;;
69951;SDS011;60406;48.408;13.392;2022-07-10T05:09:50;12.80;;;11.27;;
69951;SDS011;60406;48.408;13.392;2022-07-10T05:14:50;12.05;;;10.68;;
69951;SDS011;60406;48.408;13.392;2022-07-10T05:19:51;15.93;;;9.63;;
69951;SDS011;60406;48.408;13.392;2022-07-10T05:24:52;10.07;;;9.02;;
69951;SDS011;60406;48.408;13.392;2022-07-10T05:29:53;13.13;;;8.40;;
69951;SDS011;60406;48.408;13.392;2022-07-10T05:34:56;8.77;;;7.63;;
69951;SDS011;60406;48.408;13.392;2022-07-10T05:39:58;9.50;;;8.45;;
69951;SDS011;60406;48.408;13.392;2022-07-10T05:44:59;9.52;;;8.60;;
69951;SDS011;60406;48.408;13.392;2022-07-10T05:50:00;10.15;;;9.15;;
69951;SDS011;60406;48.408;13.392;2022-07-10T05:55:00;9.82;;;8.63;;
69951;SDS011;60406;48.408;13.392;2022-07-10T06:00:04;12.77;;;9.25;;
69951;SDS011;60406;48.408;13.392;2022-07-10T06:05:06;10.10;;;8.25;;
69951;SDS011;60406;48.408;13.392;2022-07-10T06:10:07;10.35;;;7.55;;
69951;SDS011;60406;48.408;13.392;2022-07-10T06:15:08;10.25;;;7.47;;
69951;SDS011;60406;48.408;13.392;2022-07-10T06:20:09;11.20;;;6.57;;
69951;SDS011;60406;48.408;13.392;2022-07-10T06:25:10;10.13;;;6.70;;
69951;SDS011;60406;48.408;13.392;2022-07-10T06:30:11;10.13;;;6.57;;
69951;SDS011;60406;48.408;13.392;2022-07-10T06:35:12;10.15;;;6.88;;
69951;SDS011;60406;48.408;13.392;2022-07-10T06:40:13;6.22;;;5.63;;
69951;SDS011;60406;48.408;13.392;2022-07-10T06:45:14;7.55;;;5.97;;
69951;SDS011;60406;48.408;13.392;2022-07-10T06:50:15;10.13;;;5.07;;
69951;SDS011;60406;48.408;13.392;2022-07-10T06:55:17;7.85;;;5.80;;
69951;SDS011;60406;48.408;13.392;2022-07-10T07:00:19;7.13;;;6.38;;
69951;SDS011;60406;48.408;13.392;2022-07-10T07:05:20;11.02;;;5.55;;
69951;SDS011;60406;48.408;13.392;2022-07-10T07:10:21;7.35;;;5.32;;
69951;SDS011;60406;48.408;13.392;2022-07-10T07:15:22;6.72;;;4.85;;
69951;SDS011;60406;48.408;13.392;2022-07-10T07:20:26;6.00;;;4.22;;
69951;SDS011;60406;48.408;13.392;2022-07-10T07:25:26;5.07;;;3.60;;
69951;SDS011;60406;48.408;13.392;2022-07-10T07:30:27;6.70;;;4.00;;
69951;SDS011;60406;48.408;13.392;2022-07-10T07:35:28;6.70;;;3.85;;
69951;SDS011;60406;48.408;13.392;2022-07-10T07:40:29;4.97;;;4.05;;
69951;SDS011;60406;48.408;13.392;2022-07-10T07:45:30;4.30;;;3.85;;
69951;SDS011;60406;48.408;13.392;2022-07-10T07:50:32;8.13;;;4.90;;
69951;SDS011;60406;48.408;13.392;2022-07-10T07:55:34;5.13;;;4.60;;
69951;SDS011;60406;48.408;13.392;2022-07-10T08:00:35;4.55;;;3.95;;
69951;SDS011;60406;48.408;13.392;2022-07-10T08:05:36;5.63;;;3.90;;
69951;SDS011;60406;48.408;13.392;2022-07-10T08:10:37;7.82;;;3.75;;
69951;SDS011;60406;48.408;13.392;2022-07-10T08:15:37;5.85;;;3.80;;
69951;SDS011;60406;48.408;13.392;2022-07-10T08:20:38;8.88;;;5.97;;
69951;SDS011;60406;48.408;13.392;2022-07-10T08:25:39;5.80;;;3.33;;
69951;SDS011;60406;48.408;13.392;2022-07-10T08:30:40;4.65;;;3.00;;
69951;SDS011;60406;48.408;13.392;2022-07-10T08:35:41;8.40;;;2.90;;
69951;SDS011;60406;48.408;13.392;2022-07-10T08:40:42;3.15;;;2.63;;
69951;SDS011;60406;48.408;13.392;2022-07-10T08:45:43;2.83;;;2.03;;
69951;SDS011;60406;48.408;13.392;2022-07-10T08:50:44;4.13;;;2.90;;
69951;SDS011;60406;48.408;13.392;2022-07-10T08:55:45;3.17;;;2.00;;
69951;SDS011;60406;48.408;13.392;2022-07-10T09:00:46;3.47;;;2.33;;
69951;SDS011;60406;48.408;13.392;2022-07-10T09:05:47;3.45;;;1.92;;
69951;SDS011;60406;48.408;13.392;2022-07-10T09:10:48;4.88;;;2.33;;
69951;SDS011;60406;48.408;13.392;2022-07-10T09:15:49;4.50;;;2.30;;
69951;SDS011;60406;48.408;13.392;2022-07-10T09:20:50;3.67;;;2.55;;
69951;SDS011;60406;48.408;13.392;2022-07-10T09:25:52;3.78;;;2.22;;
69951;SDS011;60406;48.408;13.392;2022-07-10T09:30:53;8.63;;;2.50;;
69951;SDS011;60406;48.408;13.392;2022-07-10T09:35:55;5.30;;;2.20;;
69951;SDS011;60406;48.408;13.392;2022-07-10T09:41:16;4.47;;;2.17;;
69951;SDS011;60406;48.408;13.392;2022-07-10T09:46:33;5.55;;;1.77;;
69951;SDS011;60406;48.408;13.392;2022-07-10T09:56:39;3.47;;;1.90;;
69951;SDS011;60406;48.408;13.392;2022-07-10T10:01:43;3.55;;;2.25;;
69951;SDS011;60406;48.408;13.392;2022-07-10T10:06:51;5.90;;;2.40;;
69951;SDS011;60406;48.408;13.392;2022-07-10T10:11:57;5.47;;;1.95;;
69951;SDS011;60406;48.408;13.392;2022-07-10T10:17:00;6.95;;;1.83;;
69951;SDS011;60406;48.408;13.392;2022-07-10T10:22:01;7.47;;;2.08;;
69951;SDS011;60406;48.408;13.392;2022-07-10T10:27:02;5.40;;;1.50;;
69951;SDS011;60406;48.408;13.392;2022-07-10T10:32:06;2.53;;;1.60;;
69951;SDS011;60406;48.408;13.392;2022-07-10T10:53:00;6.25;;;1.60;;
69951;SDS011;60406;48.408;13.392;2022-07-10T11:03:18;5.10;;;1.20;;
69951;SDS011;60406;48.408;13.392;2022-07-10T11:08:36;5.15;;;1.13;;
69951;SDS011;60406;48.408;13.392;2022-07-10T11:13:38;2.28;;;1.10;;
69951;SDS011;60406;48.408;13.392;2022-07-10T11:18:39;2.25;;;1.13;;
69951;SDS011;60406;48.408;13.392;2022-07-10T11:29:01;3.65;;;1.20;;
69951;SDS011;60406;48.408;13.392;2022-07-10T11:34:03;4.72;;;1.13;;
69951;SDS011;60406;48.408;13.392;2022-07-10T11:39:08;6.70;;;1.40;;
69951;SDS011;60406;48.408;13.392;2022-07-10T11:44:12;5.50;;;1.30;;
69951;SDS011;60406;48.408;13.392;2022-07-10T11:49:14;4.28;;;1.23;;
69951;SDS011;60406;48.408;13.392;2022-07-10T11:54:16;5.57;;;1.33;;
69951;SDS011;60406;48.408;13.392;2022-07-10T11:59:18;3.08;;;1.17;;
69951;SDS011;60406;48.408;13.392;2022-07-10T12:04:20;3.03;;;1.30;;
69951;SDS011;60406;48.408;13.392;2022-07-10T12:09:22;7.40;;;1.15;;
69951;SDS011;60406;48.408;13.392;2022-07-10T12:14:23;2.55;;;0.90;;
69951;SDS011;60406;48.408;13.392;2022-07-10T12:19:25;4.82;;;1.27;;
69951;SDS011;60406;48.408;13.392;2022-07-10T12:24:28;3.45;;;1.10;;
69951;SDS011;60406;48.408;13.392;2022-07-10T12:29:29;4.15;;;1.10;;
69951;SDS011;60406;48.408;13.392;2022-07-10T12:34:40;3.70;;;1.38;;
69951;SDS011;60406;48.408;13.392;2022-07-10T12:39:53;2.75;;;0.90;;
69951;SDS011;60406;48.408;13.392;2022-07-10T12:44:54;5.30;;;0.93;;
69951;SDS011;60406;48.408;13.392;2022-07-10T12:49:56;1.45;;;0.65;;
69951;SDS011;60406;48.408;13.392;2022-07-10T13:00:07;3.53;;;1.20;;
69951;SDS011;60406;48.408;13.392;2022-07-10T13:05:08;4.25;;;0.70;;
69951;SDS011;60406;48.408;13.392;2022-07-10T13:10:09;4.05;;;1.50;;
69951;SDS011;60406;48.408;13.392;2022-07-10T13:15:10;2.28;;;1.02;;
69951;SDS011;60406;48.408;13.392;2022-07-10T13:20:11;2.83;;;0.93;;
69951;SDS011;60406;48.408;13.392;2022-07-10T13:25:12;2.80;;;0.80;;
69951;SDS011;60406;48.408;13.392;2022-07-10T13:30:13;4.97;;;1.02;;
69951;SDS011;60406;48.408;13.392;2022-07-10T13:35:14;3.03;;;0.75;;
69951;SDS011;60406;48.408;13.392;2022-07-10T13:40:15;5.90;;;1.10;;
69951;SDS011;60406;48.408;13.392;2022-07-10T13:45:16;6.95;;;1.00;;
69951;SDS011;60406;48.408;13.392;2022-07-10T13:50:16;3.90;;;1.00;;
69951;SDS011;60406;48.408;13.392;2022-07-10T13:55:17;4.85;;;0.98;;
69951;SDS011;60406;48.408;13.392;2022-07-10T14:00:18;2.00;;;0.80;;
69951;SDS011;60406;48.408;13.392;2022-07-10T14:05:19;6.28;;;1.10;;
69951;SDS011;60406;48.408;13.392;2022-07-10T14:10:20;1.90;;;0.95;;
69951;SDS011;60406;48.408;13.392;2022-07-10T14:15:21;2.40;;;1.33;;
69951;SDS011;60406;48.408;13.392;2022-07-10T14:20:22;2.15;;;0.80;;
69951;SDS011;60406;48.408;13.392;2022-07-10T14:25:23;4.90;;;1.10;;
69951;SDS011;60406;48.408;13.392;2022-07-10T14:30:26;2.17;;;0.90;;
69951;SDS011;60406;48.408;13.392;2022-07-10T14:35:27;3.60;;;0.80;;
69951;SDS011;60406;48.408;13.392;2022-07-10T14:40:28;4.70;;;1.45;;
69951;SDS011;60406;48.408;13.392;2022-07-10T14:45:29;2.47;;;1.13;;
69951;SDS011;60406;48.408;13.392;2022-07-10T14:50:30;2.80;;;1.10;;
69951;SDS011;60406;48.408;13.392;2022-07-10T14:55:30;2.53;;;0.90;;
69951;SDS011;60406;48.408;13.392;2022-07-10T15:00:31;4.13;;;0.90;;
69951;SDS011;60406;48.408;13.392;2022-07-10T15:05:32;2.45;;;0.95;;
69951;SDS011;60406;48.408;13.392;2022-07-10T15:10:33;5.05;;;1.52;;
69951;SDS011;60406;48.408;13.392;2022-07-10T15:15:34;5.20;;;0.90;;
69951;SDS011;60406;48.408;13.392;2022-07-10T15:20:35;1.40;;;0.80;;
69951;SDS011;60406;48.408;13.392;2022-07-10T15:25:36;2.25;;;0.75;;
69951;SDS011;60406;48.408;13.392;2022-07-10T15:30:37;2.53;;;0.73;;
69951;SDS011;60406;48.408;13.392;2022-07-10T15:35:38;1.52;;;0.77;;
69951;SDS011;60406;48.408;13.392;2022-07-10T15:40:39;3.08;;;0.80;;
69951;SDS011;60406;48.408;13.392;2022-07-10T15:45:40;3.13;;;0.93;;
69951;SDS011;60406;48.408;13.392;2022-07-10T15:50:41;4.07;;;1.08;;
69951;SDS011;60406;48.408;13.392;2022-07-10T15:55:42;5.47;;;0.63;;
69951;SDS011;60406;48.408;13.392;2022-07-10T16:00:43;3.22;;;0.70;;
69951;SDS011;60406;48.408;13.392;2022-07-10T16:05:44;1.85;;;0.60;;
69951;SDS011;60406;48.408;13.392;2022-07-10T16:10:44;0.93;;;0.55;;
69951;SDS011;60406;48.408;13.392;2022-07-10T16:15:45;1.63;;;0.70;;
69951;SDS011;60406;48.408;13.392;2022-07-10T16:20:46;1.65;;;0.60;;
69951;SDS011;60406;48.408;13.392;2022-07-10T16:25:47;5.03;;;0.70;;
69951;SDS011;60406;48.408;13.392;2022-07-10T16:30:48;3.33;;;0.70;;
69951;SDS011;60406;48.408;13.392;2022-07-10T16:35:49;2.05;;;0.55;;
69951;SDS011;60406;48.408;13.392;2022-07-10T16:40:50;2.60;;;0.68;;
69951;SDS011;60406;48.408;13.392;2022-07-10T16:45:51;2.45;;;0.85;;
69951;SDS011;60406;48.408;13.392;2022-07-10T16:50:52;1.23;;;0.40;;
69951;SDS011;60406;48.408;13.392;2022-07-10T16:55:53;4.25;;;0.77;;
69951;SDS011;60406;48.408;13.392;2022-07-10T17:00:53;3.30;;;0.57;;
69951;SDS011;60406;48.408;13.392;2022-07-10T17:05:54;0.85;;;0.52;;
69951;SDS011;60406;48.408;13.392;2022-07-10T17:10:55;2.70;;;0.60;;
69951;SDS011;60406;48.408;13.392;2022-07-10T17:15:56;0.68;;;0.30;;
69951;SDS011;60406;48.408;13.392;2022-07-10T17:20:57;2.58;;;0.40;;
69951;SDS011;60406;48.408;13.392;2022-07-10T17:25:58;4.10;;;0.60;;
69951;SDS011;60406;48.408;13.392;2022-07-10T17:30:59;1.48;;;0.52;;
69951;SDS011;60406;48.408;13.392;2022-07-10T17:35:59;4.88;;;0.55;;
69951;SDS011;60406;48.408;13.392;2022-07-10T17:41:00;2.47;;;0.50;;
69951;SDS011;60406;48.408;13.392;2022-07-10T17:46:01;0.40;;;0.32;;
69951;SDS011;60406;48.408;13.392;2022-07-10T17:51:02;3.33;;;0.55;;
69951;SDS011;60406;48.408;13.392;2022-07-10T17:56:03;0.82;;;0.50;;
69951;SDS011;60406;48.408;13.392;2022-07-10T18:01:04;1.30;;;0.50;;
69951;SDS011;60406;48.408;13.392;2022-07-10T18:06:05;2.70;;;0.40;;
69951;SDS011;60406;48.408;13.392;2022-07-10T18:11:06;1.33;;;0.43;;
69951;SDS011;60406;48.408;13.392;2022-07-10T18:16:07;1.38;;;0.50;;
69951;SDS011;60406;48.408;13.392;2022-07-10T18:21:08;0.57;;;0.30;;
69951;SDS011;60406;48.408;13.392;2022-07-10T18:26:09;0.95;;;0.30;;
69951;SDS011;60406;48.408;13.392;2022-07-10T18:31:11;2.20;;;0.45;;
69951;SDS011;60406;48.408;13.392;2022-07-10T18:36:12;2.80;;;0.68;;
69951;SDS011;60406;48.408;13.392;2022-07-10T18:41:13;1.35;;;0.40;;
69951;SDS011;60406;48.408;13.392;2022-07-10T18:46:13;0.32;;;0.25;;
69951;SDS011;60406;48.408;13.392;2022-07-10T18:51:14;8.15;;;0.70;;
69951;SDS011;60406;48.408;13.392;2022-07-10T18:56:15;1.52;;;0.57;;
69951;SDS011;60406;48.408;13.392;2022-07-10T19:01:16;1.40;;;0.60;;
69951;SDS011;60406;48.408;13.392;2022-07-10T19:06:17;1.48;;;0.50;;
69951;SDS011;60406;48.408;13.392;2022-07-10T19:11:18;4.80;;;0.55;;
69951;SDS011;60406;48.408;13.392;2022-07-10T19:16:19;2.17;;;0.50;;
69951;SDS011;60406;48.408;13.392;2022-07-10T19:21:20;1.25;;;0.60;;
69951;SDS011;60406;48.408;13.392;2022-07-10T19:26:21;1.50;;;0.80;;
69951;SDS011;60406;48.408;13.392;2022-07-10T19:31:22;1.55;;;0.68;;
69951;SDS011;60406;48.408;13.392;2022-07-10T19:36:23;3.15;;;0.95;;
69951;SDS011;60406;48.408;13.392;2022-07-10T19:41:24;2.58;;;1.35;;
69951;SDS011;60406;48.408;13.392;2022-07-10T19:46:24;1.45;;;0.80;;
69951;SDS011;60406;48.408;13.392;2022-07-10T19:51:25;3.80;;;0.70;;
69951;SDS011;60406;48.408;13.392;2022-07-10T19:56:26;5.82;;;0.82;;
69951;SDS011;60406;48.408;13.392;2022-07-10T20:01:27;3.92;;;1.42;;
69951;SDS011;60406;48.408;13.392;2022-07-10T20:06:28;2.25;;;1.80;;
69951;SDS011;60406;48.408;13.392;2022-07-10T20:11:29;2.60;;;1.67;;
69951;SDS011;60406;48.408;13.392;2022-07-10T20:16:30;3.13;;;1.63;;
69951;SDS011;60406;48.408;13.392;2022-07-10T20:21:31;3.88;;;1.27;;
69951;SDS011;60406;48.408;13.392;2022-07-10T20:26:31;3.42;;;1.70;;
69951;SDS011;60406;48.408;13.392;2022-07-10T20:31:32;6.70;;;3.05;;
69951;SDS011;60406;48.408;13.392;2022-07-10T20:36:33;5.55;;;1.13;;
69951;SDS011;60406;48.408;13.392;2022-07-10T20:41:34;6.03;;;1.30;;
69951;SDS011;60406;48.408;13.392;2022-07-10T20:46:35;2.25;;;1.23;;
69951;SDS011;60406;48.408;13.392;2022-07-10T20:51:36;2.38;;;1.38;;
69951;SDS011;60406;48.408;13.392;2022-07-10T20:56:37;5.18;;;1.38;;
69951;SDS011;60406;48.408;13.392;2022-07-10T21:01:39;1.92;;;1.50;;
69951;SDS011;60406;48.408;13.392;2022-07-10T21:06:40;2.58;;;1.30;;
69951;SDS011;60406;48.408;13.392;2022-07-10T21:11:41;3.55;;;1.30;;
69951;SDS011;60406;48.408;13.392;2022-07-10T21:16:41;1.90;;;1.40;;
69951;SDS011;60406;48.408;13.392;2022-07-10T21:21:42;1.73;;;0.82;;
69951;SDS011;60406;48.408;13.392;2022-07-10T21:26:43;2.20;;;1.27;;
69951;SDS011;60406;48.408;13.392;2022-07-10T21:31:44;4.35;;;1.00;;
69951;SDS011;60406;48.408;13.392;2022-07-10T21:36:45;6.53;;;2.35;;
69951;SDS011;60406;48.408;13.392;2022-07-10T21:41:46;6.18;;;1.30;;
69951;SDS011;60406;48.408;13.392;2022-07-10T21:46:46;2.08;;;1.52;;
69951;SDS011;60406;48.408;13.392;2022-07-10T21:51:47;1.95;;;1.02;;
69951;SDS011;60406;48.408;13.392;2022-07-10T21:56:48;2.33;;;1.27;;
69951;SDS011;60406;48.408;13.392;2022-07-10T22:01:49;1.25;;;1.15;;
69951;SDS011;60406;48.408;13.392;2022-07-10T22:06:50;3.00;;;1.10;;
69951;SDS011;60406;48.408;13.392;2022-07-10T22:11:51;4.32;;;1.60;;
69951;SDS011;60406;48.408;13.392;2022-07-10T22:16:52;4.35;;;1.40;;
69951;SDS011;60406;48.408;13.392;2022-07-10T22:21:53;7.25;;;1.50;;
69951;SDS011;60406;48.408;13.392;2022-07-10T22:26:54;1.85;;;1.25;;
69951;SDS011;60406;48.408;13.392;2022-07-10T22:31:55;2.53;;;1.48;;
69951;SDS011;60406;48.408;13.392;2022-07-10T22:36:56;2.60;;;1.40;;
69951;SDS011;60406;48.408;13.392;2022-07-10T22:41:57;3.53;;;1.27;;
69951;SDS011;60406;48.408;13.392;2022-07-10T22:46:57;5.38;;;1.85;;
69951;SDS011;60406;48.408;13.392;2022-07-10T22:51:58;4.57;;;1.50;;
69951;SDS011;60406;48.408;13.392;2022-07-10T22:56:59;2.75;;;1.50;;
69951;SDS011;60406;48.408;13.392;2022-07-10T23:02:00;2.40;;;1.42;;
69951;SDS011;60406;48.408;13.392;2022-07-10T23:07:01;1.92;;;1.33;;
69951;SDS011;60406;48.408;13.392;2022-07-10T23:12:02;3.35;;;1.30;;
69951;SDS011;60406;48.408;13.392;2022-07-10T23:17:03;2.80;;;2.00;;
69951;SDS011;60406;48.408;13.392;2022-07-10T23:22:04;2.88;;;1.50;;
69951;SDS011;60406;48.408;13.392;2022-07-10T23:27:05;2.60;;;1.58;;
69951;SDS011;60406;48.408;13.392;2022-07-10T23:32:06;8.15;;;1.30;;
69951;SDS011;60406;48.408;13.392;2022-07-10T23:37:07;1.95;;;1.20;;
69951;SDS011;60406;48.408;13.392;2022-07-10T23:42:08;1.83;;;1.40;;
69951;SDS011;60406;48.408;13.392;2022-07-10T23:47:09;2.10;;;1.40;;
69951;SDS011;60406;48.408;13.392;2022-07-10T23:52:10;4.22;;;1.38;;
69951;SDS011;60406;48.408;13.392;2022-07-10T23:57:11;3.80;;;1.73;;
